sensor_id;sensor_type;location;lat;lon;timestamp;pressure;altitude;pressure_sealevel;temperature;humidity
11678;BME280;5895;41.950;24.372;2023-08-17T00:01:51;87207.94;;;17.32;75.75
11678;BME280;5895;41.950;24.372;2023-08-17T00:04:18;87204.25;;;17.28;75.62
11678;BME280;5895;41.950;24.372;2023-08-17T00:06:46;87201.09;;;17.26;75.86
11678;BME280;5895;41.950;24.372;2023-08-17T00:09:13;87197.66;;;17.21;76.48
11678;BME280;5895;41.950;24.372;2023-08-17T00:11:40;87198.66;;;17.09;75.49
11678;BME280;5895;41.950;24.372;2023-08-17T00:14:09;87197.81;;;17.04;76.29
11678;BME280;5895;41.950;24.372;2023-08-17T00:16:37;87194.13;;;17.00;76.39
11678;BME280;5895;41.950;24.372;2023-08-17T00:19:04;87188.34;;;16.92;76.61
11678;BME280;5895;41.950;24.372;2023-08-17T00:21:31;87202.97;;;16.88;76.69
11678;BME280;5895;41.950;24.372;2023-08-17T00:23:58;87194.06;;;16.84;76.85
11678;BME280;5895;41.950;24.372;2023-08-17T00:26:26;87199.53;;;16.83;76.83
11678;BME280;5895;41.950;24.372;2023-08-17T00:28:53;87190.81;;;16.72;77.07
11678;BME280;5895;41.950;24.372;2023-08-17T00:31:22;87207.00;;;16.64;77.36
11678;BME280;5895;41.950;24.372;2023-08-17T00:33:49;87196.50;;;16.64;77.49
11678;BME280;5895;41.950;24.372;2023-08-17T00:36:17;87189.91;;;16.56;77.04
11678;BME280;5895;41.950;24.372;2023-08-17T00:38:44;87196.44;;;16.54;76.87
11678;BME280;5895;41.950;24.372;2023-08-17T00:41:11;87195.34;;;16.50;77.32
11678;BME280;5895;41.950;24.372;2023-08-17T00:43:38;87191.41;;;16.47;77.01
11678;BME280;5895;41.950;24.372;2023-08-17T00:46:06;87189.28;;;16.44;77.32
11678;BME280;5895;41.950;24.372;2023-08-17T00:48:35;87192.13;;;16.37;77.19
11678;BME280;5895;41.950;24.372;2023-08-17T00:51:02;87194.22;;;16.35;76.98
11678;BME280;5895;41.950;24.372;2023-08-17T00:53:31;87191.59;;;16.35;77.47
11678;BME280;5895;41.950;24.372;2023-08-17T00:55:59;87194.69;;;16.32;77.37
11678;BME280;5895;41.950;24.372;2023-08-17T00:58:28;87191.03;;;16.28;77.09
11678;BME280;5895;41.950;24.372;2023-08-17T01:00:55;87198.03;;;16.23;77.08
11678;BME280;5895;41.950;24.372;2023-08-17T01:03:23;87186.75;;;16.17;76.88
11678;BME280;5895;41.950;24.372;2023-08-17T01:05:52;87185.13;;;16.16;77.27
11678;BME280;5895;41.950;24.372;2023-08-17T01:08:20;87199.78;;;16.12;77.15
11678;BME280;5895;41.950;24.372;2023-08-17T01:10:52;87193.47;;;16.08;77.56
11678;BME280;5895;41.950;24.372;2023-08-17T01:13:28;87190.00;;;16.02;77.00
11678;BME280;5895;41.950;24.372;2023-08-17T01:16:02;87182.41;;;16.01;77.37
11678;BME280;5895;41.950;24.372;2023-08-17T01:18:35;87180.84;;;16.00;77.33
11678;BME280;5895;41.950;24.372;2023-08-17T01:21:06;87182.91;;;15.98;77.03
11678;BME280;5895;41.950;24.372;2023-08-17T01:23:35;87193.31;;;15.93;77.05
11678;BME280;5895;41.950;24.372;2023-08-17T01:26:02;87178.06;;;15.84;77.26
11678;BME280;5895;41.950;24.372;2023-08-17T01:28:29;87191.59;;;15.76;77.29
11678;BME280;5895;41.950;24.372;2023-08-17T01:31:00;87179.53;;;15.75;77.61
11678;BME280;5895;41.950;24.372;2023-08-17T01:33:35;87183.22;;;15.74;77.38
11678;BME280;5895;41.950;24.372;2023-08-17T01:36:09;87177.97;;;15.74;77.37
11678;BME280;5895;41.950;24.372;2023-08-17T01:38:40;87178.44;;;15.71;77.09
11678;BME280;5895;41.950;24.372;2023-08-17T01:41:10;87172.69;;;15.69;77.18
11678;BME280;5895;41.950;24.372;2023-08-17T01:43:41;87172.16;;;15.67;77.31
11678;BME280;5895;41.950;24.372;2023-08-17T01:46:13;87169.78;;;15.66;77.65
11678;BME280;5895;41.950;24.372;2023-08-17T01:48:41;87182.31;;;15.64;77.52
11678;BME280;5895;41.950;24.372;2023-08-17T01:51:09;87176.28;;;15.63;77.61
11678;BME280;5895;41.950;24.372;2023-08-17T01:53:36;87178.56;;;15.59;77.51
11678;BME280;5895;41.950;24.372;2023-08-17T01:56:05;87178.81;;;15.58;77.51
11678;BME280;5895;41.950;24.372;2023-08-17T01:58:32;87171.22;;;15.56;77.80
11678;BME280;5895;41.950;24.372;2023-08-17T02:00:59;87173.59;;;15.58;77.92
11678;BME280;5895;41.950;24.372;2023-08-17T02:03:27;87170.44;;;15.56;77.65
11678;BME280;5895;41.950;24.372;2023-08-17T02:05:56;87173.00;;;15.51;77.60
11678;BME280;5895;41.950;24.372;2023-08-17T02:08:23;87171.44;;;15.50;77.54
11678;BME280;5895;41.950;24.372;2023-08-17T02:10:50;87175.09;;;15.49;77.53
11678;BME280;5895;41.950;24.372;2023-08-17T02:13:19;87172.41;;;15.44;77.64
11678;BME280;5895;41.950;24.372;2023-08-17T02:15:47;87177.81;;;15.37;77.67
11678;BME280;5895;41.950;24.372;2023-08-17T02:18:14;87173.41;;;15.38;77.90
11678;BME280;5895;41.950;24.372;2023-08-17T02:20:42;87174.41;;;15.37;77.98
11678;BME280;5895;41.950;24.372;2023-08-17T02:23:09;87173.88;;;15.34;78.08
11678;BME280;5895;41.950;24.372;2023-08-17T02:25:38;87169.69;;;15.33;77.90
11678;BME280;5895;41.950;24.372;2023-08-17T02:28:06;87178.00;;;15.30;78.11
11678;BME280;5895;41.950;24.372;2023-08-17T02:30:35;87177.22;;;15.30;77.78
11678;BME280;5895;41.950;24.372;2023-08-17T02:33:02;87180.09;;;15.28;77.83
11678;BME280;5895;41.950;24.372;2023-08-17T02:35:30;87184.78;;;15.26;78.15
11678;BME280;5895;41.950;24.372;2023-08-17T02:37:57;87166.94;;;15.23;77.77
11678;BME280;5895;41.950;24.372;2023-08-17T02:40:24;87179.72;;;15.20;77.94
11678;BME280;5895;41.950;24.372;2023-08-17T02:42:51;87178.88;;;15.14;78.11
11678;BME280;5895;41.950;24.372;2023-08-17T02:45:19;87174.38;;;15.10;78.25
11678;BME280;5895;41.950;24.372;2023-08-17T02:47:47;87183.50;;;15.07;78.29
11678;BME280;5895;41.950;24.372;2023-08-17T02:50:15;87184.00;;;15.04;78.36
11678;BME280;5895;41.950;24.372;2023-08-17T02:52:42;87180.28;;;15.00;78.55
11678;BME280;5895;41.950;24.372;2023-08-17T02:55:10;87173.94;;;14.96;78.63
11678;BME280;5895;41.950;24.372;2023-08-17T02:57:37;87174.97;;;14.95;78.45
11678;BME280;5895;41.950;24.372;2023-08-17T03:00:05;87171.84;;;14.93;78.89
11678;BME280;5895;41.950;24.372;2023-08-17T03:02:33;87185.91;;;14.92;78.50
11678;BME280;5895;41.950;24.372;2023-08-17T03:05:02;87183.22;;;14.87;78.20
11678;BME280;5895;41.950;24.372;2023-08-17T03:07:29;87181.38;;;14.82;78.58
11678;BME280;5895;41.950;24.372;2023-08-17T03:09:57;87177.41;;;14.79;78.98
11678;BME280;5895;41.950;24.372;2023-08-17T03:12:24;87180.19;;;14.73;78.92
11678;BME280;5895;41.950;24.372;2023-08-17T03:14:51;87175.44;;;14.70;78.45
11678;BME280;5895;41.950;24.372;2023-08-17T03:17:19;87177.25;;;14.69;79.15
11678;BME280;5895;41.950;24.372;2023-08-17T03:19:46;87174.09;;;14.67;79.02
11678;BME280;5895;41.950;24.372;2023-08-17T03:22:15;87177.19;;;14.64;79.47
11678;BME280;5895;41.950;24.372;2023-08-17T03:24:42;87175.84;;;14.62;79.27
11678;BME280;5895;41.950;24.372;2023-08-17T03:27:09;87177.13;;;14.59;79.18
11678;BME280;5895;41.950;24.372;2023-08-17T03:29:36;87173.97;;;14.57;79.42
11678;BME280;5895;41.950;24.372;2023-08-17T03:32:04;87171.59;;;14.55;79.82
11678;BME280;5895;41.950;24.372;2023-08-17T03:34:31;87181.25;;;14.55;79.63
11678;BME280;5895;41.950;24.372;2023-08-17T03:36:59;87175.72;;;14.51;79.81
11678;BME280;5895;41.950;24.372;2023-08-17T03:39:27;87170.75;;;14.50;80.41
11678;BME280;5895;41.950;24.372;2023-08-17T03:41:55;87173.59;;;14.48;79.61
11678;BME280;5895;41.950;24.372;2023-08-17T03:44:22;87177.44;;;14.46;79.56
11678;BME280;5895;41.950;24.372;2023-08-17T03:46:49;87173.16;;;14.40;79.16
11678;BME280;5895;41.950;24.372;2023-08-17T03:49:16;87171.59;;;14.39;79.73
11678;BME280;5895;41.950;24.372;2023-08-17T03:51:44;87166.31;;;14.34;79.87
11678;BME280;5895;41.950;24.372;2023-08-17T03:54:12;87172.47;;;14.27;79.85
11678;BME280;5895;41.950;24.372;2023-08-17T03:56:41;87176.66;;;14.28;80.88
11678;BME280;5895;41.950;24.372;2023-08-17T03:59:08;87167.19;;;14.22;80.50
11678;BME280;5895;41.950;24.372;2023-08-17T04:01:35;87177.63;;;14.22;80.62
11678;BME280;5895;41.950;24.372;2023-08-17T04:04:03;87176.59;;;14.23;80.23
11678;BME280;5895;41.950;24.372;2023-08-17T04:06:30;87180.47;;;14.21;80.74
11678;BME280;5895;41.950;24.372;2023-08-17T04:08:58;87176.03;;;14.21;80.80
11678;BME280;5895;41.950;24.372;2023-08-17T04:11:26;87176.03;;;14.21;81.54
11678;BME280;5895;41.950;24.372;2023-08-17T04:13:55;87175.78;;;14.23;81.03
11678;BME280;5895;41.950;24.372;2023-08-17T04:16:22;87181.25;;;14.21;80.86
11678;BME280;5895;41.950;24.372;2023-08-17T04:18:49;87179.19;;;14.23;81.41
11678;BME280;5895;41.950;24.372;2023-08-17T04:21:16;87177.94;;;14.26;81.38
11678;BME280;5895;41.950;24.372;2023-08-17T04:23:44;87173.03;;;14.29;81.05
11678;BME280;5895;41.950;24.372;2023-08-17T04:26:11;87169.38;;;14.30;81.73
11678;BME280;5895;41.950;24.372;2023-08-17T04:28:38;87170.97;;;14.32;81.22
11678;BME280;5895;41.950;24.372;2023-08-17T04:31:07;87175.16;;;14.33;81.35
11678;BME280;5895;41.950;24.372;2023-08-17T04:33:34;87170.72;;;14.33;81.88
11678;BME280;5895;41.950;24.372;2023-08-17T04:36:02;87185.34;;;14.34;81.93
11678;BME280;5895;41.950;24.372;2023-08-17T04:38:29;87177.06;;;14.37;81.51
11678;BME280;5895;41.950;24.372;2023-08-17T04:40:56;87185.19;;;14.41;81.99
11678;BME280;5895;41.950;24.372;2023-08-17T04:43:23;87182.91;;;14.44;82.04
11678;BME280;5895;41.950;24.372;2023-08-17T04:45:51;87184.03;;;14.48;82.45
11678;BME280;5895;41.950;24.372;2023-08-17T04:48:19;87186.94;;;14.52;82.30
11678;BME280;5895;41.950;24.372;2023-08-17T04:50:47;87177.59;;;14.56;82.12
11678;BME280;5895;41.950;24.372;2023-08-17T04:53:14;87184.41;;;14.57;82.38
11678;BME280;5895;41.950;24.372;2023-08-17T04:55:41;87182.91;;;14.61;82.45
11678;BME280;5895;41.950;24.372;2023-08-17T04:58:08;87175.59;;;14.63;82.34
11678;BME280;5895;41.950;24.372;2023-08-17T05:00:36;87176.19;;;14.65;82.87
11678;BME280;5895;41.950;24.372;2023-08-17T05:03:04;87177.25;;;14.69;82.54
11678;BME280;5895;41.950;24.372;2023-08-17T05:05:32;87171.56;;;14.72;82.44
11678;BME280;5895;41.950;24.372;2023-08-17T05:08:01;87185.47;;;14.78;82.18
11678;BME280;5895;41.950;24.372;2023-08-17T05:10:28;87176.94;;;14.82;82.51
11678;BME280;5895;41.950;24.372;2023-08-17T05:12:55;87185.38;;;14.90;82.35
11678;BME280;5895;41.950;24.372;2023-08-17T05:15:23;87182.88;;;15.00;82.11
11678;BME280;5895;41.950;24.372;2023-08-17T05:17:50;87193.75;;;15.14;81.82
11678;BME280;5895;41.950;24.372;2023-08-17T05:20:17;87179.56;;;15.26;81.41
11678;BME280;5895;41.950;24.372;2023-08-17T05:22:47;87178.91;;;15.41;81.15
11678;BME280;5895;41.950;24.372;2023-08-17T05:25:15;87182.47;;;15.57;80.70
11678;BME280;5895;41.950;24.372;2023-08-17T05:27:42;87186.31;;;15.71;81.02
11678;BME280;5895;41.950;24.372;2023-08-17T05:30:10;87181.72;;;15.83;81.15
11678;BME280;5895;41.950;24.372;2023-08-17T05:32:37;87183.47;;;16.00;81.74
11678;BME280;5895;41.950;24.372;2023-08-17T05:35:05;87172.03;;;16.11;81.91
11678;BME280;5895;41.950;24.372;2023-08-17T05:37:33;87180.00;;;16.26;81.43
11678;BME280;5895;41.950;24.372;2023-08-17T05:40:01;87175.91;;;16.40;82.42
11678;BME280;5895;41.950;24.372;2023-08-17T05:42:30;87178.66;;;16.56;81.27
11678;BME280;5895;41.950;24.372;2023-08-17T05:44:57;87176.63;;;16.68;80.65
11678;BME280;5895;41.950;24.372;2023-08-17T05:47:25;87174.13;;;16.83;80.82
11678;BME280;5895;41.950;24.372;2023-08-17T05:49:52;87171.59;;;16.99;79.95
11678;BME280;5895;41.950;24.372;2023-08-17T05:52:19;87175.06;;;17.14;79.44
11678;BME280;5895;41.950;24.372;2023-08-17T05:54:46;87181.44;;;17.29;79.70
11678;BME280;5895;41.950;24.372;2023-08-17T05:57:15;87172.84;;;17.43;78.96
11678;BME280;5895;41.950;24.372;2023-08-17T05:59:42;87172.38;;;17.57;79.44
11678;BME280;5895;41.950;24.372;2023-08-17T06:02:09;87170.31;;;17.69;78.97
11678;BME280;5895;41.950;24.372;2023-08-17T06:04:37;87168.25;;;17.81;78.56
11678;BME280;5895;41.950;24.372;2023-08-17T06:07:04;87168.81;;;17.93;77.56
11678;BME280;5895;41.950;24.372;2023-08-17T06:09:31;87161.47;;;18.06;77.23
11678;BME280;5895;41.950;24.372;2023-08-17T06:11:59;87167.78;;;18.20;76.84
11678;BME280;5895;41.950;24.372;2023-08-17T06:14:27;87168.31;;;18.32;76.98
11678;BME280;5895;41.950;24.372;2023-08-17T06:16:55;87165.16;;;18.45;75.97
11678;BME280;5895;41.950;24.372;2023-08-17T06:19:22;87167.28;;;18.59;75.92
11678;BME280;5895;41.950;24.372;2023-08-17T06:21:49;87174.13;;;18.70;75.93
11678;BME280;5895;41.950;24.372;2023-08-17T06:24:16;87168.88;;;18.80;75.17
11678;BME280;5895;41.950;24.372;2023-08-17T06:26:44;87169.63;;;18.91;74.84
11678;BME280;5895;41.950;24.372;2023-08-17T06:29:11;87168.03;;;19.00;74.50
11678;BME280;5895;41.950;24.372;2023-08-17T06:31:40;87161.97;;;19.10;74.28
11678;BME280;5895;41.950;24.372;2023-08-17T06:34:08;87168.78;;;19.21;74.23
11678;BME280;5895;41.950;24.372;2023-08-17T06:36:38;87165.06;;;19.32;74.04
11678;BME280;5895;41.950;24.372;2023-08-17T06:39:06;87158.97;;;19.42;73.37
11678;BME280;5895;41.950;24.372;2023-08-17T06:41:34;87171.84;;;19.53;73.22
11678;BME280;5895;41.950;24.372;2023-08-17T06:44:01;87163.66;;;19.65;73.30
11678;BME280;5895;41.950;24.372;2023-08-17T06:46:29;87171.22;;;19.77;72.61
11678;BME280;5895;41.950;24.372;2023-08-17T06:48:57;87173.81;;;19.87;72.47
11678;BME280;5895;41.950;24.372;2023-08-17T06:51:25;87171.38;;;20.01;72.22
11678;BME280;5895;41.950;24.372;2023-08-17T06:53:52;87171.03;;;20.13;71.58
11678;BME280;5895;41.950;24.372;2023-08-17T06:56:20;87170.47;;;20.21;71.76
11678;BME280;5895;41.950;24.372;2023-08-17T06:58:49;87170.38;;;20.31;71.29
11678;BME280;5895;41.950;24.372;2023-08-17T07:01:17;87173.00;;;20.36;70.79
11678;BME280;5895;41.950;24.372;2023-08-17T07:03:44;87165.59;;;20.43;70.63
11678;BME280;5895;41.950;24.372;2023-08-17T07:06:13;87163.94;;;20.52;70.34
11678;BME280;5895;41.950;24.372;2023-08-17T07:08:40;87164.38;;;20.65;70.48
11678;BME280;5895;41.950;24.372;2023-08-17T07:11:07;87166.69;;;20.76;70.54
11678;BME280;5895;41.950;24.372;2023-08-17T07:13:35;87169.94;;;20.92;70.33
11678;BME280;5895;41.950;24.372;2023-08-17T07:16:02;87158.97;;;21.09;70.45
11678;BME280;5895;41.950;24.372;2023-08-17T07:18:29;87159.91;;;21.23;69.97
11678;BME280;5895;41.950;24.372;2023-08-17T07:20:57;87165.31;;;21.37;69.43
11678;BME280;5895;41.950;24.372;2023-08-17T07:23:26;87164.19;;;21.43;68.33
11678;BME280;5895;41.950;24.372;2023-08-17T07:25:53;87167.56;;;21.49;68.37
11678;BME280;5895;41.950;24.372;2023-08-17T07:28:20;87174.09;;;21.56;68.89
11678;BME280;5895;41.950;24.372;2023-08-17T07:30:47;87169.50;;;21.67;68.68
11678;BME280;5895;41.950;24.372;2023-08-17T07:33:15;87170.19;;;21.78;68.71
11678;BME280;5895;41.950;24.372;2023-08-17T07:35:42;87176.69;;;21.85;68.95
11678;BME280;5895;41.950;24.372;2023-08-17T07:38:10;87168.88;;;21.94;68.54
11678;BME280;5895;41.950;24.372;2023-08-17T07:40:38;87174.28;;;22.08;68.09
11678;BME280;5895;41.950;24.372;2023-08-17T07:43:08;87172.81;;;22.21;68.31
11678;BME280;5895;41.950;24.372;2023-08-17T07:45:35;87167.75;;;22.24;68.33
11678;BME280;5895;41.950;24.372;2023-08-17T07:48:03;87165.84;;;22.30;67.94
11678;BME280;5895;41.950;24.372;2023-08-17T07:50:30;87177.63;;;22.37;68.24
11678;BME280;5895;41.950;24.372;2023-08-17T07:52:58;87177.25;;;22.44;67.10
11678;BME280;5895;41.950;24.372;2023-08-17T07:55:26;87167.47;;;22.44;67.08
11678;BME280;5895;41.950;24.372;2023-08-17T07:57:55;87174.28;;;22.51;67.54
11678;BME280;5895;41.950;24.372;2023-08-17T08:00:21;87181.25;;;22.60;67.12
11678;BME280;5895;41.950;24.372;2023-08-17T08:02:48;87183.25;;;22.68;67.24
11678;BME280;5895;41.950;24.372;2023-08-17T08:05:16;87187.97;;;22.71;66.94
11678;BME280;5895;41.950;24.372;2023-08-17T08:07:43;87171.53;;;22.75;67.11
11678;BME280;5895;41.950;24.372;2023-08-17T08:10:11;87182.53;;;22.82;66.83
11678;BME280;5895;41.950;24.372;2023-08-17T08:12:38;87178.19;;;22.91;66.51
11678;BME280;5895;41.950;24.372;2023-08-17T08:15:08;87184.81;;;23.07;65.45
11678;BME280;5895;41.950;24.372;2023-08-17T08:17:35;87176.59;;;23.22;65.75
11678;BME280;5895;41.950;24.372;2023-08-17T08:20:04;87178.78;;;23.34;65.12
11678;BME280;5895;41.950;24.372;2023-08-17T08:22:31;87176.56;;;23.41;64.97
11678;BME280;5895;41.950;24.372;2023-08-17T08:24:58;87184.50;;;23.55;65.24
11678;BME280;5895;41.950;24.372;2023-08-17T08:27:26;87184.94;;;23.62;64.79
11678;BME280;5895;41.950;24.372;2023-08-17T08:29:53;87183.09;;;23.77;64.83
11678;BME280;5895;41.950;24.372;2023-08-17T08:32:22;87184.38;;;23.93;63.29
11678;BME280;5895;41.950;24.372;2023-08-17T08:34:49;87170.25;;;23.97;63.79
11678;BME280;5895;41.950;24.372;2023-08-17T08:37:16;87173.16;;;24.10;63.82
11678;BME280;5895;41.950;24.372;2023-08-17T08:39:50;87182.19;;;24.22;60.81
11678;BME280;5895;41.950;24.372;2023-08-17T08:42:19;87173.94;;;24.38;63.12
11678;BME280;5895;41.950;24.372;2023-08-17T08:44:47;87181.81;;;24.43;63.29
11678;BME280;5895;41.950;24.372;2023-08-17T08:47:16;87171.34;;;24.60;63.60
11678;BME280;5895;41.950;24.372;2023-08-17T08:49:49;87173.34;;;24.77;60.22
11678;BME280;5895;41.950;24.372;2023-08-17T08:52:22;87174.03;;;24.83;60.18
11678;BME280;5895;41.950;24.372;2023-08-17T08:54:50;87173.38;;;24.99;61.86
11678;BME280;5895;41.950;24.372;2023-08-17T08:57:21;87170.91;;;25.03;61.63
11678;BME280;5895;41.950;24.372;2023-08-17T08:59:49;87171.03;;;24.98;60.88
11678;BME280;5895;41.950;24.372;2023-08-17T09:02:16;87180.94;;;25.06;61.78
11678;BME280;5895;41.950;24.372;2023-08-17T09:04:45;87176.41;;;25.06;61.14
11678;BME280;5895;41.950;24.372;2023-08-17T09:07:13;87175.91;;;25.04;61.85
11678;BME280;5895;41.950;24.372;2023-08-17T09:09:41;87172.78;;;25.25;61.20
11678;BME280;5895;41.950;24.372;2023-08-17T09:12:08;87174.41;;;25.35;60.90
11678;BME280;5895;41.950;24.372;2023-08-17T09:14:36;87171.38;;;25.50;61.30
11678;BME280;5895;41.950;24.372;2023-08-17T09:17:05;87181.25;;;25.58;60.46
11678;BME280;5895;41.950;24.372;2023-08-17T09:19:32;87175.78;;;25.77;60.51
11678;BME280;5895;41.950;24.372;2023-08-17T09:22:01;87176.44;;;25.82;59.25
11678;BME280;5895;41.950;24.372;2023-08-17T09:24:35;87170.03;;;25.83;56.61
11678;BME280;5895;41.950;24.372;2023-08-17T09:27:03;87171.75;;;25.88;60.17
11678;BME280;5895;41.950;24.372;2023-08-17T09:29:31;87172.69;;;25.92;59.92
11678;BME280;5895;41.950;24.372;2023-08-17T09:32:04;87174.63;;;26.00;57.61
11678;BME280;5895;41.950;24.372;2023-08-17T09:34:32;87179.03;;;26.05;60.36
11678;BME280;5895;41.950;24.372;2023-08-17T09:37:04;87169.22;;;26.31;57.85
11678;BME280;5895;41.950;24.372;2023-08-17T09:39:31;87172.91;;;26.53;58.74
11678;BME280;5895;41.950;24.372;2023-08-17T09:41:59;87164.78;;;26.49;58.40
11678;BME280;5895;41.950;24.372;2023-08-17T09:44:27;87169.63;;;26.64;58.46
11678;BME280;5895;41.950;24.372;2023-08-17T09:46:55;87171.69;;;26.68;58.46
11678;BME280;5895;41.950;24.372;2023-08-17T09:49:23;87172.31;;;26.82;58.38
11678;BME280;5895;41.950;24.372;2023-08-17T09:51:51;87174.06;;;27.04;58.15
11678;BME280;5895;41.950;24.372;2023-08-17T09:54:24;87167.66;;;27.13;53.43
11678;BME280;5895;41.950;24.372;2023-08-17T09:56:53;87162.81;;;27.24;57.19
11678;BME280;5895;41.950;24.372;2023-08-17T09:59:20;87163.41;;;27.21;57.27
11678;BME280;5895;41.950;24.372;2023-08-17T10:01:50;87167.81;;;27.26;57.70
11678;BME280;5895;41.950;24.372;2023-08-17T10:04:21;87167.34;;;27.41;55.35
11678;BME280;5895;41.950;24.372;2023-08-17T10:06:51;87164.34;;;27.42;55.69
11678;BME280;5895;41.950;24.372;2023-08-17T10:09:25;87162.13;;;27.62;54.53
11678;BME280;5895;41.950;24.372;2023-08-17T10:11:55;87155.69;;;27.80;55.06
11678;BME280;5895;41.950;24.372;2023-08-17T10:14:29;87157.84;;;27.87;51.91
11678;BME280;5895;41.950;24.372;2023-08-17T10:17:01;87157.34;;;27.93;53.22
11678;BME280;5895;41.950;24.372;2023-08-17T10:19:43;87151.41;;;27.88;50.89
11678;BME280;5895;41.950;24.372;2023-08-17T10:22:16;87154.72;;;27.76;52.31
11678;BME280;5895;41.950;24.372;2023-08-17T10:24:45;87153.47;;;27.82;56.13
11678;BME280;5895;41.950;24.372;2023-08-17T10:27:13;87153.38;;;28.08;55.85
11678;BME280;5895;41.950;24.372;2023-08-17T10:29:42;87149.41;;;28.23;55.44
11678;BME280;5895;41.950;24.372;2023-08-17T10:32:11;87153.44;;;28.29;55.15
11678;BME280;5895;41.950;24.372;2023-08-17T10:34:40;87144.81;;;28.32;55.25
11678;BME280;5895;41.950;24.372;2023-08-17T10:37:08;87156.41;;;28.28;54.71
11678;BME280;5895;41.950;24.372;2023-08-17T10:39:36;87146.19;;;28.38;54.87
11678;BME280;5895;41.950;24.372;2023-08-17T10:42:06;87139.56;;;28.44;53.34
11678;BME280;5895;41.950;24.372;2023-08-17T10:44:43;87143.50;;;28.47;48.22
11678;BME280;5895;41.950;24.372;2023-08-17T10:47:21;87133.22;;;28.58;47.34
11678;BME280;5895;41.950;24.372;2023-08-17T10:49:50;87136.13;;;28.73;52.65
11678;BME280;5895;41.950;24.372;2023-08-17T10:52:28;87148.47;;;28.78;49.31
11678;BME280;5895;41.950;24.372;2023-08-17T10:54:56;87142.75;;;28.88;53.26
11678;BME280;5895;41.950;24.372;2023-08-17T10:57:35;87141.38;;;28.82;45.39
11678;BME280;5895;41.950;24.372;2023-08-17T11:00:21;87149.66;;;28.89;44.21
11678;BME280;5895;41.950;24.372;2023-08-17T11:02:54;87143.84;;;28.96;53.04
11678;BME280;5895;41.950;24.372;2023-08-17T11:05:40;87145.38;;;29.18;44.97
11678;BME280;5895;41.950;24.372;2023-08-17T11:08:09;87140.03;;;29.39;51.73
11678;BME280;5895;41.950;24.372;2023-08-17T11:10:37;87138.47;;;29.38;51.49
11678;BME280;5895;41.950;24.372;2023-08-17T11:13:06;87145.25;;;29.35;50.16
11678;BME280;5895;41.950;24.372;2023-08-17T11:15:38;87149.53;;;29.48;47.21
11678;BME280;5895;41.950;24.372;2023-08-17T11:18:08;87144.19;;;29.48;51.29
11678;BME280;5895;41.950;24.372;2023-08-17T11:20:37;87153.31;;;29.47;48.92
11678;BME280;5895;41.950;24.372;2023-08-17T11:23:05;87142.44;;;29.32;50.30
11678;BME280;5895;41.950;24.372;2023-08-17T11:25:33;87130.78;;;29.36;51.15
11678;BME280;5895;41.950;24.372;2023-08-17T11:28:01;87139.69;;;29.40;51.29
11678;BME280;5895;41.950;24.372;2023-08-17T11:30:30;87137.56;;;29.55;50.14
11678;BME280;5895;41.950;24.372;2023-08-17T11:33:00;87145.06;;;29.73;51.00
11678;BME280;5895;41.950;24.372;2023-08-17T11:35:28;87125.47;;;29.82;50.35
11678;BME280;5895;41.950;24.372;2023-08-17T11:37:55;87136.53;;;29.92;50.41
11678;BME280;5895;41.950;24.372;2023-08-17T11:40:23;87137.56;;;30.00;50.26
11678;BME280;5895;41.950;24.372;2023-08-17T11:42:52;87134.53;;;30.01;49.60
11678;BME280;5895;41.950;24.372;2023-08-17T11:45:19;87138.31;;;30.00;48.82
11678;BME280;5895;41.950;24.372;2023-08-17T11:47:48;87132.38;;;29.83;48.65
11678;BME280;5895;41.950;24.372;2023-08-17T11:50:17;87126.38;;;29.86;48.79
11678;BME280;5895;41.950;24.372;2023-08-17T11:52:45;87131.84;;;29.89;49.70
11678;BME280;5895;41.950;24.372;2023-08-17T11:55:16;87129.19;;;30.01;44.59
11678;BME280;5895;41.950;24.372;2023-08-17T11:57:44;87132.94;;;30.21;49.48
11678;BME280;5895;41.950;24.372;2023-08-17T12:00:18;87129.03;;;30.43;46.05
11678;BME280;5895;41.950;24.372;2023-08-17T12:02:49;87127.91;;;30.56;47.03
11678;BME280;5895;41.950;24.372;2023-08-17T12:05:21;87129.94;;;30.47;43.80
11678;BME280;5895;41.950;24.372;2023-08-17T12:07:49;87126.34;;;30.43;48.89
11678;BME280;5895;41.950;24.372;2023-08-17T12:10:18;87116.31;;;30.40;48.67
11678;BME280;5895;41.950;24.372;2023-08-17T12:12:48;87113.63;;;30.40;48.79
11678;BME280;5895;41.950;24.372;2023-08-17T12:15:16;87107.50;;;30.40;48.90
11678;BME280;5895;41.950;24.372;2023-08-17T12:17:49;87107.16;;;30.41;41.55
11678;BME280;5895;41.950;24.372;2023-08-17T12:20:20;87105.50;;;30.37;48.32
11678;BME280;5895;41.950;24.372;2023-08-17T12:22:47;87098.69;;;30.27;48.69
11678;BME280;5895;41.950;24.372;2023-08-17T12:25:15;87104.47;;;30.29;48.62
11678;BME280;5895;41.950;24.372;2023-08-17T12:27:42;87104.72;;;30.36;48.71
11678;BME280;5895;41.950;24.372;2023-08-17T12:30:24;87098.81;;;30.31;44.06
11678;BME280;5895;41.950;24.372;2023-08-17T12:32:54;87095.88;;;30.36;47.26
11678;BME280;5895;41.950;24.372;2023-08-17T12:35:21;87104.47;;;30.41;48.09
11678;BME280;5895;41.950;24.372;2023-08-17T12:37:50;87104.81;;;30.40;48.17
11678;BME280;5895;41.950;24.372;2023-08-17T12:40:18;87103.34;;;30.30;48.16
11678;BME280;5895;41.950;24.372;2023-08-17T12:42:45;87100.25;;;30.28;48.77
11678;BME280;5895;41.950;24.372;2023-08-17T12:45:13;87098.13;;;30.34;48.23
11678;BME280;5895;41.950;24.372;2023-08-17T12:47:41;87098.91;;;30.22;48.63
11678;BME280;5895;41.950;24.372;2023-08-17T12:50:10;87100.38;;;30.19;46.97
11678;BME280;5895;41.950;24.372;2023-08-17T12:52:37;87106.59;;;30.23;48.30
11678;BME280;5895;41.950;24.372;2023-08-17T12:55:05;87098.81;;;30.31;47.88
11678;BME280;5895;41.950;24.372;2023-08-17T12:57:32;87103.25;;;30.39;48.12
11678;BME280;5895;41.950;24.372;2023-08-17T13:00:00;87104.03;;;30.27;48.03
11678;BME280;5895;41.950;24.372;2023-08-17T13:02:27;87101.81;;;30.29;48.29
11678;BME280;5895;41.950;24.372;2023-08-17T13:04:55;87103.81;;;30.44;48.15
11678;BME280;5895;41.950;24.372;2023-08-17T13:07:23;87106.69;;;30.64;47.43